Time;durP1;ratioP1;P1;durP2;ratioP2;P2;SDS_P1;SDS_P2;PMS_P1;PMS_P2;Temp;Humidity;BMP_temperature;BMP_pressure;BME280_temperature;BME280_humidity;BME280_pressure;Samples;Min_cycle;Max_cycle;Signal;HPM_P1;HPM_P2
2022/01/03 09:13:15;;;;;;;37.50;5.50;;;8.70;99.90;;;;;;5132715;27;20403;-65
2022/01/03 09:15:44;;;;;;;40.58;5.68;;;8.70;99.90;;;;;;5131720;28;20056;-65
2022/01/03 09:18:25;;;;;;;38.58;6.20;;;8.70;99.90;;;;;;5111860;28;20505;-66
2022/01/03 09:20:50;;;;;;;29.65;4.60;;;8.70;99.90;;;;;;5111621;28;20036;-65
2022/01/03 09:23:21;;;;;;;43.28;6.00;;;8.70;99.90;;;;;;5111577;28;20093;-67
2022/01/03 09:28:49;;;;;;;39.25;5.38;;;8.80;99.90;;;;;;5111420;28;20069;-65
2022/01/03 09:31:40;;;;;;;31.02;5.25;;;8.70;99.90;;;;;;5111635;28;20035;-65
2022/01/03 09:34:08;;;;;;;35.25;5.53;;;8.70;99.90;;;;;;5109320;28;20136;-66
2022/01/03 09:36:34;;;;;;;33.03;5.45;;;8.70;99.90;;;;;;5110434;28;20044;-65
2022/01/03 09:39:00;;;;;;;34.30;5.30;;;8.70;99.90;;;;;;5111513;28;20051;-65
2022/01/03 09:41:28;;;;;;;29.42;5.45;;;8.80;99.90;;;;;;5111429;28;20032;-64
2022/01/03 09:44:01;;;;;;;35.47;5.18;;;8.80;99.90;;;;;;5110812;28;20052;-65
2022/01/03 09:46:39;;;;;;;25.13;4.78;;;8.80;99.90;;;;;;5109364;28;20096;-66
2022/01/03 09:49:07;;;;;;;41.45;5.53;;;8.80;99.90;;;;;;5109465;28;20055;-65
2022/01/03 09:51:33;;;;;;;29.33;4.93;;;8.70;99.90;;;;;;5110690;28;20047;-65
2022/01/03 09:54:19;;;;;;;43.83;5.90;;;8.80;99.90;;;;;;5110862;28;20036;-65
2022/01/03 09:56:45;;;;;;;31.48;5.80;;;8.80;99.90;;;;;;5109998;28;20115;-65
2022/01/03 09:59:11;;;;;;;30.38;5.35;;;8.80;99.90;;;;;;5110816;28;20047;-65
2022/01/03 10:01:37;;;;;;;30.88;5.38;;;8.90;99.90;;;;;;5111516;28;20039;-65
2022/01/03 10:04:03;;;;;;;37.17;5.63;;;8.90;99.90;;;;;;5110299;28;20035;-65
2022/01/03 10:06:29;;;;;;;29.67;4.95;;;8.90;99.90;;;;;;5109495;28;20371;-65
2022/01/03 10:08:55;;;;;;;35.45;5.65;;;8.90;99.90;;;;;;5109499;28;20050;-65
2022/01/03 10:11:22;;;;;;;40.00;5.65;;;8.90;99.90;;;;;;5110406;28;20134;-65
2022/01/03 10:13:49;;;;;;;30.33;5.05;;;9.00;99.90;;;;;;5111181;28;20052;-66
2022/01/03 10:16:15;;;;;;;37.85;5.35;;;9.00;99.90;;;;;;5110385;28;20050;-65
2022/01/03 10:18:40;;;;;;;30.98;5.60;;;9.00;99.90;;;;;;5109434;28;20127;-65
2022/01/03 10:21:07;;;;;;;35.15;5.53;;;9.00;99.90;;;;;;5111255;28;20446;-65
2022/01/03 10:23:34;;;;;;;31.98;5.57;;;9.10;99.90;;;;;;5102948;28;20044;-65
2022/01/03 10:26:18;;;;;;;;;;;9.10;99.90;;;;;;5096108;28;20051;-65
2022/01/03 10:28:44;;;;;;;39.70;5.10;;;9.10;99.90;;;;;;5096298;28;20372;-65
2022/01/03 10:31:14;;;;;;;37.88;5.57;;;9.20;99.90;;;;;;5095251;28;20156;-65
2022/01/03 10:33:40;;;;;;;35.35;5.22;;;9.20;99.90;;;;;;5095795;28;20044;-65
2022/01/03 10:36:11;;;;;;;27.98;4.63;;;9.30;99.90;;;;;;5095380;28;20105;-65
2022/01/03 10:38:44;;;;;;;35.55;5.50;;;9.20;99.90;;;;;;5096146;28;20564;-66
2022/01/03 10:41:16;;;;;;;27.25;5.05;;;9.30;99.90;;;;;;5096421;28;20036;-64
2022/01/03 10:43:47;;;;;;;24.85;5.22;;;9.20;99.90;;;;;;5095165;28;20039;-65
2022/01/03 10:46:18;;;;;;;27.23;4.80;;;9.20;99.90;;;;;;5097161;28;20393;-65
2022/01/03 10:48:44;;;;;;;28.38;4.88;;;9.20;99.90;;;;;;5095224;28;20079;-64
2022/01/03 10:51:10;;;;;;;31.33;5.00;;;9.20;99.90;;;;;;5096134;28;20036;-65
2022/01/03 10:53:41;;;;;;;30.63;4.85;;;9.30;99.90;;;;;;5096050;28;20043;-65
2022/01/03 10:56:34;;;;;;;23.40;4.82;;;9.30;99.90;;;;;;5096633;28;20047;-65
2022/01/03 10:59:14;;;;;;;34.58;4.82;;;9.30;99.90;;;;;;5096049;28;20044;-64
2022/01/03 11:02:00;;;;;;;29.92;5.35;;;9.20;99.90;;;;;;5096597;28;20040;-65
2022/01/03 11:04:50;;;;;;;21.63;4.53;;;9.30;99.90;;;;;;5096017;28;20044;-64
2022/01/03 11:10:45;;;;;;;29.98;4.57;;;9.30;99.90;;;;;;5095678;28;20105;-65
2022/01/03 11:13:22;;;;;;;34.92;4.57;;;9.30;99.90;;;;;;5095929;28;20047;-65
2022/01/03 11:15:58;;;;;;;29.17;5.03;;;9.40;99.90;;;;;;5096307;28;20380;-65
2022/01/03 11:18:29;;;;;;;25.55;4.93;;;9.40;99.90;;;;;;5078255;28;20055;-65
2022/01/03 11:21:26;;;;;;;34.92;5.82;;;9.40;99.90;;;;;;5096543;28;20040;-64
2022/01/03 11:24:03;;;;;;;29.30;5.32;;;9.40;99.90;;;;;;5095753;28;20044;-64
2022/01/03 11:26:30;;;;;;;31.40;4.63;;;9.40;99.90;;;;;;5094652;28;20079;-65
2022/01/03 11:28:57;;;;;;;25.45;4.53;;;9.50;99.90;;;;;;5095451;28;20087;-64
2022/01/03 11:31:23;;;;;;;27.00;4.00;;;9.50;99.90;;;;;;5095367;28;20142;-64
2022/01/03 11:33:51;;;;;;;32.13;5.72;;;9.50;99.90;;;;;;5094688;28;20089;-65
2022/01/03 11:36:20;;;;;;;31.25;5.15;;;9.60;99.90;;;;;;5094273;28;20047;-65
2022/01/03 11:38:47;;;;;;;29.30;4.45;;;9.60;99.90;;;;;;5077602;28;20472;-65
2022/01/03 11:41:13;;;;;;;27.77;5.25;;;9.60;99.90;;;;;;5095297;28;20040;-65
2022/01/03 11:43:41;;;;;;;26.67;4.40;;;9.60;99.90;;;;;;5094419;28;20051;-62
2022/01/03 11:46:07;;;;;;;27.42;4.60;;;9.60;99.90;;;;;;5094545;28;20044;-65
2022/01/03 11:48:33;;;;;;;25.35;3.67;;;9.60;99.90;;;;;;5094189;28;20055;-65
2022/01/03 11:51:09;;;;;;;22.95;4.28;;;9.60;99.90;;;;;;5094974;28;20375;-64
2022/01/03 11:53:40;;;;;;;24.30;4.35;;;9.60;99.90;;;;;;5094008;28;20062;-64
2022/01/03 11:56:12;;;;;;;30.95;4.43;;;9.60;99.90;;;;;;5095199;28;20460;-64
2022/01/03 12:04:38;;;;;;;30.48;4.72;;;9.80;99.90;;;;;;5094222;28;20101;-63
2022/01/03 12:07:12;;;;;;;27.33;4.32;;;9.80;99.90;;;;;;5093186;28;20472;-64
2022/01/03 12:09:50;;;;;;;22.00;3.83;;;9.80;99.90;;;;;;5091702;28;20070;-65
2022/01/03 12:12:33;;;;;;;27.27;4.57;;;9.80;99.90;;;;;;5093764;28;20056;-65
2022/01/03 12:15:02;;;;;;;26.20;4.32;;;9.80;99.90;;;;;;5094559;28;20040;-64
2022/01/03 12:17:46;;;;;;;28.50;4.22;;;9.80;99.90;;;;;;5094155;28;20035;-64
2022/01/03 12:20:12;;;;;;;36.78;5.07;;;9.80;99.90;;;;;;5093442;28;20044;-64
2022/01/03 12:22:51;;;;;;;;;;;9.90;99.90;;;;;;5093969;28;20044;-64
2022/01/03 12:25:46;;;;;;;26.63;4.60;;;9.80;99.90;;;;;;5094475;28;19959;-65
2022/01/03 12:28:12;;;;;;;29.25;5.55;;;9.80;99.90;;;;;;5093218;28;20052;-64
2022/01/03 12:30:54;;;;;;;30.23;4.90;;;9.80;99.90;;;;;;5094267;28;20046;-64
2022/01/03 12:33:22;;;;;;;27.25;5.07;;;9.90;99.90;;;;;;5094379;28;20221;-64
2022/01/03 12:35:49;;;;;;;28.70;4.10;;;9.90;99.90;;;;;;5093849;28;20115;-64
2022/01/03 12:38:19;;;;;;;30.73;4.65;;;10.00;99.90;;;;;;5090073;28;20456;-64
2022/01/03 12:40:50;;;;;;;24.73;4.45;;;9.90;99.90;;;;;;5094160;28;20097;-64
2022/01/03 12:43:18;;;;;;;28.40;4.40;;;10.00;99.90;;;;;;5094098;28;20040;-66
2022/01/03 12:45:44;;;;;;;32.50;5.55;;;10.10;99.90;;;;;;5094078;28;20101;-64
2022/01/03 12:51:05;;;;;;;26.77;4.55;;;10.10;99.90;;;;;;5094017;28;20545;-64
2022/01/03 12:53:31;;;;;;;28.85;5.20;;;10.10;99.90;;;;;;5094048;28;20041;-64
2022/01/03 12:56:12;;;;;;;34.25;5.00;;;10.10;99.90;;;;;;5093748;28;20395;-64
2022/01/03 12:58:40;;;;;;;24.35;4.40;;;10.10;99.90;;;;;;5094454;28;20412;-64
2022/01/03 13:01:13;;;;;;;33.65;5.30;;;10.10;99.90;;;;;;5093931;28;20043;-66
2022/01/03 13:03:39;;;;;;;29.67;4.72;;;10.10;99.90;;;;;;5093836;28;20471;-64
2022/01/03 13:06:19;;;;;;;25.38;4.90;;;10.10;99.90;;;;;;5093935;28;20101;-64
2022/01/03 13:08:48;;;;;;;29.45;4.65;;;10.10;99.90;;;;;;5093590;28;20476;-63
2022/01/03 13:11:20;;;;;;;27.40;5.07;;;10.00;99.90;;;;;;5092391;28;20043;-64
2022/01/03 13:13:48;;;;;;;35.80;5.22;;;10.00;99.90;;;;;;5093883;28;20487;-63
2022/01/03 13:16:21;;;;;;;29.13;4.45;;;10.00;99.90;;;;;;5093785;28;20079;-64
2022/01/03 13:18:51;;;;;;;25.23;5.13;;;10.00;99.90;;;;;;5094276;28;20040;-65
2022/01/03 13:21:18;;;;;;;29.40;5.10;;;10.00;99.90;;;;;;5094452;28;20122;-64
2022/01/03 13:23:54;;;;;;;30.42;4.72;;;9.90;99.90;;;;;;5093687;28;20044;-64
2022/01/03 13:26:22;;;;;;;26.50;4.30;;;9.90;99.90;;;;;;5092886;28;20051;-65
2022/01/03 13:28:50;;;;;;;29.05;5.13;;;9.90;99.90;;;;;;5094423;28;20056;-64
2022/01/03 13:31:16;;;;;;;37.72;5.13;;;9.90;99.90;;;;;;5092286;28;20127;-64
2022/01/03 13:33:42;;;;;;;34.00;6.88;;;9.90;99.90;;;;;;5093267;28;20476;-64
2022/01/03 13:36:08;;;;;;;37.30;5.95;;;9.90;99.90;;;;;;5089018;28;20059;-64
2022/01/03 13:38:34;;;;;;;33.05;5.55;;;9.80;99.90;;;;;;5093411;28;20039;-65
2022/01/03 13:41:18;;;;;;;32.95;5.43;;;9.80;99.90;;;;;;5093449;28;20089;-64
2022/01/03 13:43:50;;;;;;;33.60;5.82;;;9.80;99.90;;;;;;5093591;28;20040;-64
2022/01/03 13:49:22;;;;;;;34.85;5.82;;;9.90;99.90;;;;;;5093368;28;20051;-64
2022/01/03 13:52:33;;;;;;;36.10;5.70;;;9.80;99.90;;;;;;5092182;28;20040;-65
2022/01/03 13:55:06;;;;;;;30.30;5.55;;;9.70;99.90;;;;;;5047521;28;20380;-64
2022/01/03 13:57:36;;;;;;;33.60;5.43;;;9.70;99.90;;;;;;5072619;28;20365;-65
2022/01/03 14:00:05;;;;;;;29.05;5.20;;;9.70;99.90;;;;;;5076876;28;20131;-64
2022/01/03 14:02:30;;;;;;;35.28;5.95;;;9.70;99.90;;;;;;5076926;28;20040;-64
2022/01/03 14:04:57;;;;;;;31.77;4.97;;;9.70;99.90;;;;;;5077132;28;20096;-66
2022/01/03 14:07:23;;;;;;;31.02;5.40;;;9.70;99.90;;;;;;5076545;28;20051;-64
2022/01/03 14:09:56;;;;;;;36.28;5.95;;;9.70;99.90;;;;;;5076623;28;20044;-64
2022/01/03 14:12:22;;;;;;;34.58;5.72;;;9.60;99.90;;;;;;5075929;28;20056;-64
2022/01/03 14:14:53;;;;;;;32.67;5.90;;;9.60;99.90;;;;;;5076157;28;20535;-65
2022/01/03 14:17:21;;;;;;;30.25;5.28;;;9.60;99.90;;;;;;5076940;28;20040;-64
2022/01/03 14:20:07;;;;;;;33.60;5.40;;;9.60;99.90;;;;;;5077156;28;20174;-66
2022/01/03 14:22:35;;;;;;;35.47;5.97;;;9.60;99.90;;;;;;5076369;28;20048;-65
2022/01/03 14:25:07;;;;;;;28.92;5.40;;;9.60;99.90;;;;;;5076449;28;20052;-64
2022/01/03 14:27:45;;;;;;;35.38;5.47;;;9.50;99.90;;;;;;5075878;28;20048;-64
2022/01/03 14:30:20;;;;;;;35.00;5.35;;;9.50;99.90;;;;;;5075737;28;20051;-64
2022/01/03 14:32:49;;;;;;;45.85;5.97;;;9.50;99.90;;;;;;5076270;28;20048;-64
2022/01/03 14:35:28;;;;;;;39.25;5.63;;;9.50;99.90;;;;;;5076473;28;20051;-64
2022/01/03 14:38:10;;;;;;;48.47;5.72;;;9.50;99.90;;;;;;5076725;28;20037;-64
2022/01/03 14:40:43;;;;;;;37.70;6.47;;;9.40;99.90;;;;;;5076379;28;20044;-64
2022/01/03 14:43:11;;;;;;;36.63;6.05;;;9.40;99.90;;;;;;5076258;28;20471;-64
2022/01/03 14:45:38;;;;;;;45.30;6.68;;;9.40;99.90;;;;;;5075485;28;20132;-65
2022/01/03 14:48:05;;;;;;;32.58;6.22;;;9.40;99.90;;;;;;5092976;28;20046;-64
2022/01/03 14:50:32;;;;;;;31.15;5.47;;;9.40;99.90;;;;;;5095926;28;20489;-64
2022/01/03 14:53:00;;;;;;;33.45;6.20;;;9.30;99.90;;;;;;5094882;28;20119;-65
2022/01/03 14:55:41;;;;;;;46.85;6.93;;;9.30;99.90;;;;;;5096665;28;20060;-63
2022/01/03 14:58:08;;;;;;;34.97;5.60;;;9.30;99.90;;;;;;5095348;28;20051;-64
2022/01/03 15:00:35;;;;;;;35.63;6.55;;;9.20;99.90;;;;;;5096102;28;20044;-65
2022/01/03 15:03:01;;;;;;;41.20;6.65;;;9.20;99.90;;;;;;5095266;28;20115;-63
2022/01/03 15:05:27;;;;;;;41.25;6.25;;;9.10;99.90;;;;;;5094236;28;20660;-64
2022/01/03 15:07:54;;;;;;;;;;;9.20;99.90;;;;;;5095800;28;20100;-63
2022/01/03 15:10:20;;;;;;;42.40;6.43;;;9.20;99.90;;;;;;5095056;28;19966;-63
2022/01/03 15:12:51;;;;;;;38.80;6.18;;;9.10;99.90;;;;;;5091687;28;20067;-63
2022/01/03 15:15:16;;;;;;;39.28;5.70;;;9.10;99.90;;;;;;5088389;28;20039;-62
2022/01/03 15:17:42;;;;;;;36.70;5.85;;;9.10;99.90;;;;;;5095200;28;20050;-63
2022/01/03 15:20:11;;;;;;;34.97;6.00;;;9.00;99.90;;;;;;5094097;28;20043;-63
2022/01/03 15:22:37;;;;;;;42.08;6.40;;;9.00;99.90;;;;;;5095121;28;20040;-64
2022/01/03 15:25:03;;;;;;;38.47;5.72;;;9.00;99.90;;;;;;5095456;28;20115;-63
2022/01/03 15:27:29;;;;;;;43.38;5.80;;;9.00;99.90;;;;;;5094202;28;20043;-62
2022/01/03 15:29:55;;;;;;;33.78;5.28;;;9.00;99.90;;;;;;5096035;28;20044;-63
2022/01/03 15:32:21;;;;;;;28.77;5.43;;;9.00;99.90;;;;;;5095253;28;20040;-63
2022/01/03 15:34:47;;;;;;;31.40;5.50;;;8.90;99.90;;;;;;5094968;28;20381;-63
2022/01/03 15:37:13;;;;;;;36.63;5.30;;;8.90;99.90;;;;;;5077215;28;20048;-63
2022/01/03 15:39:40;;;;;;;28.20;5.35;;;8.90;99.90;;;;;;5094381;28;20491;-64
2022/01/03 15:42:08;;;;;;;33.10;5.75;;;8.80;99.90;;;;;;5094693;28;20032;-63
2022/01/03 15:44:34;;;;;;;33.83;5.55;;;8.90;99.90;;;;;;5092404;28;20046;-63
2022/01/03 15:46:59;;;;;;;31.55;5.07;;;8.90;99.90;;;;;;5095196;28;20535;-64
2022/01/03 15:49:25;;;;;;;32.72;5.28;;;8.80;99.90;;;;;;5095090;28;20425;-63
2022/01/03 15:51:51;;;;;;;29.42;4.85;;;8.80;99.90;;;;;;5094764;28;20122;-63
2022/01/03 15:54:17;;;;;;;;;;;8.80;99.90;;;;;;5094980;28;20139;-65
2022/01/03 15:56:44;;;;;;;33.92;5.75;;;8.70;99.90;;;;;;5093282;28;20032;-63
2022/01/03 15:59:11;;;;;;;27.75;5.43;;;8.70;99.90;;;;;;5093833;28;20040;-62
2022/01/03 16:01:37;;;;;;;30.83;7.68;;;8.70;99.90;;;;;;5093818;28;20054;-65
2022/01/03 16:04:03;;;;;;;;;;;8.60;99.90;;;;;;5077639;28;20126;-63
2022/01/03 16:06:29;;;;;;;28.80;5.72;;;8.60;99.90;;;;;;5095226;28;20015;-62
2022/01/03 16:08:55;;;;;;;26.63;4.90;;;8.60;99.90;;;;;;5093713;28;20464;-62
2022/01/03 16:11:21;;;;;;;;;;;8.50;99.90;;;;;;5093161;28;20048;-62
2022/01/03 16:13:48;;;;;;;33.22;4.70;;;8.50;99.90;;;;;;5094751;28;20040;-63
2022/01/03 16:16:15;;;;;;;21.48;4.35;;;8.50;99.90;;;;;;5094319;28;20040;-62
2022/01/03 16:18:40;;;;;;;28.60;5.03;;;8.50;99.90;;;;;;5092541;28;20044;-62
2022/01/03 16:21:08;;;;;;;28.40;5.05;;;8.40;99.90;;;;;;5092470;28;20044;-62
2022/01/03 16:23:34;;;;;;;23.95;4.60;;;8.40;99.90;;;;;;5087317;28;20044;-62
2022/01/03 16:26:00;;;;;;;;;;;8.40;99.90;;;;;;5094091;28;20110;-62
2022/01/03 16:28:25;;;;;;;32.65;6.30;;;8.40;99.90;;;;;;5093840;28;20359;-63
2022/01/03 16:30:51;;;;;;;24.13;5.05;;;8.30;99.90;;;;;;5092937;28;20040;-62
2022/01/03 16:33:17;;;;;;;26.05;4.97;;;8.30;99.90;;;;;;5093456;28;20036;-63
2022/01/03 16:35:43;;;;;;;18.90;4.47;;;8.30;99.90;;;;;;5093804;28;20039;-63
2022/01/03 16:38:12;;;;;;;31.63;5.20;;;8.20;99.90;;;;;;5092081;28;20485;-63
2022/01/03 16:40:39;;;;;;;25.05;4.40;;;8.20;99.90;;;;;;5091365;28;20067;-63
2022/01/03 16:43:05;;;;;;;26.92;4.70;;;8.20;99.90;;;;;;5092408;28;20047;-63
2022/01/03 16:45:31;;;;;;;;;;;8.10;99.90;;;;;;5093645;28;20083;-63
2022/01/03 16:47:57;;;;;;;30.55;4.80;;;8.10;99.90;;;;;;5093274;28;20179;-63
2022/01/03 16:50:24;;;;;;;25.15;4.68;;;8.10;99.90;;;;;;5093339;28;20482;-63
2022/01/03 16:52:50;;;;;;;26.45;4.20;;;8.10;99.90;;;;;;5093189;28;20118;-62
2022/01/03 16:55:15;;;;;;;26.08;4.57;;;8.00;99.90;;;;;;5090894;28;20112;-63
2022/01/03 16:57:41;;;;;;;27.75;4.43;;;8.00;99.90;;;;;;5093136;28;20066;-63
2022/01/03 17:00:08;;;;;;;30.48;4.43;;;8.00;99.90;;;;;;5092073;28;20044;-62
2022/01/03 17:02:38;;;;;;;25.83;4.68;;;8.00;99.90;;;;;;5090608;28;20044;-62
2022/01/03 17:05:05;;;;;;;30.42;5.03;;;8.00;99.90;;;;;;5092644;28;20043;-61
2022/01/03 17:07:31;;;;;;;23.88;6.50;;;7.90;99.90;;;;;;5090777;28;20422;-61
2022/01/03 17:09:57;;;;;;;28.27;3.92;;;7.90;99.90;;;;;;5093041;28;20036;-62
2022/01/03 17:12:23;;;;;;;27.13;5.57;;;7.90;99.90;;;;;;5091942;28;20052;-62
2022/01/03 17:14:49;;;;;;;21.70;4.20;;;7.80;99.90;;;;;;5093435;28;20460;-61
2022/01/03 17:17:14;;;;;;;26.45;7.60;;;7.80;99.90;;;;;;5093359;28;20032;-61
2022/01/03 17:19:41;;;;;;;17.67;3.72;;;7.80;99.90;;;;;;5093550;28;20122;-62
2022/01/03 17:22:09;;;;;;;28.27;4.82;;;7.80;99.90;;;;;;5093600;28;20044;-62
2022/01/03 17:24:35;;;;;;;22.90;3.70;;;7.80;99.90;;;;;;5092665;28;20055;-62
2022/01/03 17:27:02;;;;;;;30.27;4.38;;;7.80;99.90;;;;;;5093573;28;20039;-61
2022/01/03 17:29:27;;;;;;;;;;;7.80;99.90;;;;;;5093050;28;20506;-62
2022/01/03 17:31:53;;;;;;;34.08;4.18;;;7.80;99.90;;;;;;5093571;28;19922;-62
2022/01/03 17:34:19;;;;;;;23.48;4.03;;;7.80;99.90;;;;;;5096358;28;20356;-62
2022/01/03 17:36:45;;;;;;;26.63;3.95;;;7.80;99.90;;;;;;5097691;28;20380;-61
2022/01/03 17:39:10;;;;;;;31.95;4.50;;;7.80;99.90;;;;;;5095787;28;20032;-61
2022/01/03 17:41:36;;;;;;;20.33;3.80;;;7.80;99.90;;;;;;5097181;28;20030;-63
2022/01/03 17:44:04;;;;;;;30.30;4.55;;;7.80;99.90;;;;;;5097466;28;20114;-61
2022/01/03 17:46:29;;;;;;;22.45;3.90;;;7.80;99.90;;;;;;5097304;28;20048;-61
2022/01/03 17:48:55;;;;;;;24.77;4.07;;;7.80;99.90;;;;;;5097359;28;20085;-62
2022/01/03 17:51:20;;;;;;;23.30;4.18;;;7.80;99.90;;;;;;5097068;28;20047;-61
2022/01/03 17:53:47;;;;;;;24.85;3.72;;;7.70;99.90;;;;;;5097233;28;20075;-62
2022/01/03 17:56:12;;;;;;;22.30;3.90;;;7.80;99.90;;;;;;5097366;28;20044;-62
2022/01/03 17:58:39;;;;;;;27.63;3.83;;;7.70;99.90;;;;;;5097475;28;20067;-61
2022/01/03 18:01:05;;;;;;;25.85;4.32;;;7.80;99.90;;;;;;5098000;28;20417;-62
2022/01/03 18:03:33;;;;;;;23.05;4.32;;;7.70;99.90;;;;;;5098028;28;20043;-62
2022/01/03 18:05:59;;;;;;;26.75;5.13;;;7.80;99.90;;;;;;5096017;28;20035;-62
2022/01/03 18:08:26;;;;;;;27.75;4.30;;;7.70;99.90;;;;;;5097023;28;20048;-63
2022/01/03 18:10:52;;;;;;;21.35;3.83;;;7.70;99.90;;;;;;5096321;28;20050;-62
2022/01/03 18:13:20;;;;;;;29.30;4.18;;;7.70;99.90;;;;;;5097404;28;20359;-62
2022/01/03 18:15:45;;;;;;;27.63;4.30;;;7.60;99.90;;;;;;5095300;28;20055;-63
2022/01/03 18:18:12;;;;;;;28.55;4.15;;;7.60;99.90;;;;;;5096704;28;20378;-64
2022/01/03 18:20:38;;;;;;;26.95;4.25;;;7.60;99.90;;;;;;5096396;28;20044;-63
2022/01/03 18:23:04;;;;;;;21.30;4.72;;;7.60;99.90;;;;;;5093812;28;20058;-63
2022/01/03 18:25:30;;;;;;;22.30;4.40;;;7.60;99.90;;;;;;5096435;28;20037;-64
2022/01/03 18:27:56;;;;;;;26.02;3.60;;;7.60;99.90;;;;;;5095858;28;20039;-63
2022/01/03 18:30:22;;;;;;;25.15;3.72;;;7.60;99.90;;;;;;5095096;28;20060;-62
2022/01/03 18:32:48;;;;;;;23.05;4.53;;;7.50;99.90;;;;;;5095497;28;20074;-63
2022/01/03 18:35:14;;;;;;;21.50;3.90;;;7.50;99.90;;;;;;5095695;28;20047;-62
2022/01/03 18:37:39;;;;;;;24.50;3.88;;;7.50;99.90;;;;;;5095268;28;20040;-61
2022/01/03 18:40:07;;;;;;;25.83;4.57;;;7.50;99.90;;;;;;5095507;28;20044;-62
2022/01/03 18:42:34;;;;;;;27.75;4.10;;;7.50;99.90;;;;;;5096507;28;20138;-63
2022/01/03 18:45:01;;;;;;;22.38;3.85;;;7.50;99.90;;;;;;5094890;28;20372;-63
2022/01/03 18:47:26;;;;;;;;;;;7.50;99.90;;;;;;5096763;28;20044;-62
2022/01/03 18:49:53;;;;;;;28.00;6.72;;;7.50;99.90;;;;;;5096933;28;19923;-62
2022/01/03 18:52:21;;;;;;;20.48;4.30;;;7.50;99.90;;;;;;5096817;28;20036;-62
2022/01/03 18:54:48;;;;;;;21.65;4.53;;;7.50;99.90;;;;;;5096191;28;20138;-64
2022/01/03 18:57:14;;;;;;;29.80;7.15;;;7.50;99.90;;;;;;5096353;28;20036;-64
2022/01/03 18:59:40;;;;;;;25.17;4.50;;;7.50;99.90;;;;;;5096178;28;20476;-63
2022/01/03 19:02:06;;;;;;;27.80;5.00;;;7.40;99.90;;;;;;5096076;28;20118;-64
2022/01/03 19:04:31;;;;;;;25.48;3.90;;;7.40;99.90;;;;;;5095137;28;20051;-62
2022/01/03 19:06:57;;;;;;;20.80;4.63;;;7.40;99.90;;;;;;5095841;28;20044;-62
2022/01/03 19:09:23;;;;;;;28.13;4.30;;;7.40;99.90;;;;;;5096029;28;20036;-63
2022/01/03 19:11:49;;;;;;;27.90;4.82;;;7.40;99.90;;;;;;5095722;28;20348;-64
2022/01/03 19:14:14;;;;;;;30.17;4.70;;;7.40;99.90;;;;;;5095940;28;20048;-64
2022/01/03 19:16:40;;;;;;;29.15;4.03;;;7.50;99.90;;;;;;5095860;28;20044;-65
2022/01/03 19:19:06;;;;;;;28.88;4.97;;;7.40;99.90;;;;;;5095693;28;20046;-64
2022/01/03 19:21:32;;;;;;;23.48;4.75;;;7.40;99.90;;;;;;5095465;28;20039;-64
2022/01/03 19:23:57;;;;;;;28.40;4.57;;;7.40;99.90;;;;;;5095587;28;20048;-66
2022/01/03 19:26:24;;;;;;;23.88;4.68;;;7.30;99.90;;;;;;5095590;28;20480;-63
2022/01/03 19:28:50;;;;;;;22.95;5.28;;;7.30;99.90;;;;;;5094431;28;20052;-61
2022/01/03 19:31:19;;;;;;;31.80;5.03;;;7.30;99.90;;;;;;5095193;28;20035;-62
2022/01/03 19:39:00;;;;;;;26.15;4.10;;;7.20;99.90;;;;;;5095347;28;20047;-63
2022/01/03 19:41:26;;;;;;;24.38;4.72;;;7.20;99.90;;;;;;5094955;28;20047;-62
2022/01/03 19:43:53;;;;;;;26.10;4.20;;;7.10;99.90;;;;;;5093801;28;20047;-62
2022/01/03 19:46:20;;;;;;;31.15;5.72;;;7.10;99.90;;;;;;5095272;28;20048;-63
2022/01/03 19:48:48;;;;;;;26.15;4.65;;;7.10;99.90;;;;;;5094878;28;20040;-61
2022/01/03 19:51:15;;;;;;;22.92;4.18;;;7.10;99.90;;;;;;5094012;28;20050;-61
2022/01/03 19:53:42;;;;;;;;;;;7.10;99.90;;;;;;5095115;28;20051;-62
2022/01/03 19:56:08;;;;;;;22.52;5.15;;;7.10;99.90;;;;;;5093843;28;19923;-62
2022/01/03 19:58:34;;;;;;;32.85;12.38;;;7.10;99.90;;;;;;5094567;28;20075;-61
2022/01/03 20:01:00;;;;;;;49.92;27.27;;;7.10;99.90;;;;;;5094573;28;20040;-63
2022/01/03 20:03:26;;;;;;;37.92;11.32;;;7.10;99.90;;;;;;5094952;28;20416;-62
2022/01/03 20:05:54;;;;;;;27.88;6.22;;;7.00;99.90;;;;;;5093925;28;20357;-61
2022/01/03 20:08:21;;;;;;;30.60;5.15;;;7.00;99.90;;;;;;5094236;28;20072;-62
2022/01/03 20:10:47;;;;;;;29.23;6.28;;;7.10;99.90;;;;;;5093531;28;20048;-62
2022/01/03 20:13:13;;;;;;;31.95;5.45;;;7.10;99.90;;;;;;5093286;28;20048;-62
2022/01/03 20:15:39;;;;;;;29.95;5.15;;;7.10;99.90;;;;;;5094704;28;20093;-62
2022/01/03 20:18:05;;;;;;;31.02;5.57;;;7.20;99.90;;;;;;5093612;28;20040;-62
2022/01/03 20:20:33;;;;;;;28.85;5.30;;;7.20;99.90;;;;;;5094567;28;20369;-63
2022/01/03 20:23:03;;;;;;;24.88;4.22;;;7.20;99.90;;;;;;5094502;28;20165;-62
2022/01/03 20:25:31;;;;;;;24.38;4.38;;;7.30;99.90;;;;;;5094741;28;20088;-62
2022/01/03 20:27:57;;;;;;;26.23;4.25;;;7.30;99.90;;;;;;5093128;28;20079;-62
2022/01/03 20:30:25;;;;;;;27.58;4.55;;;7.30;99.90;;;;;;5110626;28;20073;-61
2022/01/03 20:32:51;;;;;;;22.10;3.88;;;7.40;99.90;;;;;;5094232;28;20040;-61
2022/01/03 20:35:18;;;;;;;25.70;4.53;;;7.40;99.90;;;;;;5094558;28;20130;-62
2022/01/03 20:37:43;;;;;;;;;;;7.50;99.90;;;;;;5094301;28;20040;-62
2022/01/03 20:40:11;;;;;;;19.67;3.70;;;7.50;99.90;;;;;;5094266;28;19915;-62
2022/01/03 20:42:38;;;;;;;19.30;3.63;;;7.50;99.90;;;;;;5093164;28;20609;-63
2022/01/03 20:45:04;;;;;;;31.20;4.60;;;7.50;99.90;;;;;;5094143;28;20048;-62
2022/01/03 20:47:30;;;;;;;16.92;4.20;;;7.50;99.90;;;;;;5094383;28;20109;-62
2022/01/03 20:49:57;;;;;;;24.60;4.53;;;7.60;99.90;;;;;;5094842;28;20032;-62
2022/01/03 20:52:23;;;;;;;21.27;3.72;;;7.60;99.90;;;;;;5093096;28;20123;-62
2022/01/03 20:54:49;;;;;;;25.35;3.97;;;7.60;99.90;;;;;;5094599;28;20563;-63
2022/01/03 20:57:15;;;;;;;22.58;6.18;;;7.60;99.90;;;;;;5093870;28;20040;-62
2022/01/03 20:59:41;;;;;;;19.73;3.78;;;7.50;99.90;;;;;;5093676;28;20051;-62
2022/01/03 21:02:06;;;;;;;21.42;3.40;;;7.60;99.90;;;;;;5092864;28;20062;-63
2022/01/03 21:04:32;;;;;;;22.75;4.57;;;7.50;99.90;;;;;;5093850;28;20424;-63
2022/01/03 21:06:58;;;;;;;19.42;4.53;;;7.50;99.90;;;;;;5094374;28;20036;-63
2022/01/03 21:09:24;;;;;;;19.35;3.13;;;7.50;99.90;;;;;;5094234;28;20460;-63
2022/01/03 21:11:50;;;;;;;27.60;3.95;;;7.40;99.90;;;;;;5092951;28;20051;-62
2022/01/03 21:14:15;;;;;;;31.58;3.90;;;7.40;99.90;;;;;;5093762;28;20185;-63
2022/01/03 21:16:43;;;;;;;20.45;3.72;;;7.40;99.90;;;;;;5093715;28;20134;-63
2022/01/03 21:19:09;;;;;;;26.63;4.00;;;7.40;99.90;;;;;;5092627;28;20052;-63
2022/01/03 21:21:36;;;;;;;;;;;7.30;99.90;;;;;;5093844;28;20044;-63
2022/01/03 21:24:01;;;;;;;23.47;3.83;;;7.30;99.90;;;;;;5093330;28;19919;-63
2022/01/03 21:26:27;;;;;;;21.92;3.38;;;7.30;99.90;;;;;;5093218;28;20728;-63
2022/01/03 21:28:54;;;;;;;20.05;3.35;;;7.20;99.90;;;;;;5092986;28;20059;-63
2022/01/03 21:31:20;;;;;;;20.92;3.50;;;7.30;99.90;;;;;;5092872;28;20484;-64
2022/01/03 21:33:45;;;;;;;;;;;7.20;99.90;;;;;;5093623;28;20051;-64
2022/01/03 21:36:11;;;;;;;24.27;3.50;;;7.30;99.90;;;;;;5093469;28;19916;-64
